sensor_id;sensor_type;location;lat;lon;timestamp;P1;durP1;ratioP1;P2;durP2;ratioP2
54745;SDS011;40640;48.130;11.356;2022-07-29T00:02:40;5.43;;;1.52;;
54745;SDS011;40640;48.130;11.356;2022-07-29T00:06:42;2.63;;;1.45;;
54745;SDS011;40640;48.130;11.356;2022-07-29T00:10:47;1.73;;;1.17;;
54745;SDS011;40640;48.130;11.356;2022-07-29T00:14:50;1.33;;;1.23;;
54745;SDS011;40640;48.130;11.356;2022-07-29T00:18:52;1.83;;;1.48;;
54745;SDS011;40640;48.130;11.356;2022-07-29T00:22:55;2.20;;;1.23;;
54745;SDS011;40640;48.130;11.356;2022-07-29T00:26:59;2.70;;;1.55;;
54745;SDS011;40640;48.130;11.356;2022-07-29T00:31:02;1.90;;;1.55;;
54745;SDS011;40640;48.130;11.356;2022-07-29T00:35:05;1.20;;;1.13;;
54745;SDS011;40640;48.130;11.356;2022-07-29T00:39:27;1.58;;;1.33;;
54745;SDS011;40640;48.130;11.356;2022-07-29T00:43:31;2.15;;;1.52;;
54745;SDS011;40640;48.130;11.356;2022-07-29T00:47:33;1.30;;;1.20;;
54745;SDS011;40640;48.130;11.356;2022-07-29T00:51:37;1.40;;;1.25;;
54745;SDS011;40640;48.130;11.356;2022-07-29T00:55:40;2.55;;;1.48;;
54745;SDS011;40640;48.130;11.356;2022-07-29T00:59:44;1.15;;;0.68;;
54745;SDS011;40640;48.130;11.356;2022-07-29T01:03:47;1.30;;;1.20;;
54745;SDS011;40640;48.130;11.356;2022-07-29T01:07:51;2.05;;;1.58;;
54745;SDS011;40640;48.130;11.356;2022-07-29T01:11:56;0.95;;;0.95;;
54745;SDS011;40640;48.130;11.356;2022-07-29T01:16:02;1.20;;;1.10;;
54745;SDS011;40640;48.130;11.356;2022-07-29T01:20:11;1.27;;;0.98;;
54745;SDS011;40640;48.130;11.356;2022-07-29T01:24:29;1.60;;;1.35;;
54745;SDS011;40640;48.130;11.356;2022-07-29T01:28:58;2.47;;;1.27;;
54745;SDS011;40640;48.130;11.356;2022-07-29T01:33:10;1.27;;;1.02;;
54745;SDS011;40640;48.130;11.356;2022-07-29T01:37:39;1.30;;;1.20;;
54745;SDS011;40640;48.130;11.356;2022-07-29T01:41:48;1.33;;;1.23;;
54745;SDS011;40640;48.130;11.356;2022-07-29T01:45:56;1.25;;;1.10;;
54745;SDS011;40640;48.130;11.356;2022-07-29T01:50:03;1.08;;;0.98;;
54745;SDS011;40640;48.130;11.356;2022-07-29T01:54:12;1.00;;;0.90;;
54745;SDS011;40640;48.130;11.356;2022-07-29T01:58:20;0.98;;;0.98;;
54745;SDS011;40640;48.130;11.356;2022-07-29T02:02:26;2.58;;;1.15;;
54745;SDS011;40640;48.130;11.356;2022-07-29T02:06:32;1.60;;;1.02;;
54745;SDS011;40640;48.130;11.356;2022-07-29T02:10:37;0.80;;;0.80;;
54745;SDS011;40640;48.130;11.356;2022-07-29T02:14:44;2.40;;;1.02;;
54745;SDS011;40640;48.130;11.356;2022-07-29T02:18:52;1.80;;;1.20;;
54745;SDS011;40640;48.130;11.356;2022-07-29T02:22:58;7.05;;;1.20;;
54745;SDS011;40640;48.130;11.356;2022-07-29T02:27:01;0.95;;;0.95;;
54745;SDS011;40640;48.130;11.356;2022-07-29T02:31:05;1.67;;;1.08;;
54745;SDS011;40640;48.130;11.356;2022-07-29T02:35:11;0.70;;;0.70;;
54745;SDS011;40640;48.130;11.356;2022-07-29T02:39:16;1.35;;;1.25;;
54745;SDS011;40640;48.130;11.356;2022-07-29T02:43:19;2.58;;;1.00;;
54745;SDS011;40640;48.130;11.356;2022-07-29T02:47:24;1.98;;;0.90;;
54745;SDS011;40640;48.130;11.356;2022-07-29T02:51:45;1.20;;;1.10;;
54745;SDS011;40640;48.130;11.356;2022-07-29T02:55:53;0.93;;;0.80;;
54745;SDS011;40640;48.130;11.356;2022-07-29T02:59:59;1.10;;;1.00;;
54745;SDS011;40640;48.130;11.356;2022-07-29T03:04:06;1.38;;;1.25;;
54745;SDS011;40640;48.130;11.356;2022-07-29T03:08:12;1.40;;;0.88;;
54745;SDS011;40640;48.130;11.356;2022-07-29T03:12:18;4.00;;;0.80;;
54745;SDS011;40640;48.130;11.356;2022-07-29T03:16:21;2.45;;;1.50;;
54745;SDS011;40640;48.130;11.356;2022-07-29T03:20:26;1.90;;;1.40;;
54745;SDS011;40640;48.130;11.356;2022-07-29T03:24:32;1.50;;;1.17;;
54745;SDS011;40640;48.130;11.356;2022-07-29T03:28:36;1.33;;;1.15;;
54745;SDS011;40640;48.130;11.356;2022-07-29T03:32:40;0.90;;;0.90;;
54745;SDS011;40640;48.130;11.356;2022-07-29T03:36:45;2.40;;;1.10;;
54745;SDS011;40640;48.130;11.356;2022-07-29T03:40:51;1.67;;;1.08;;
54745;SDS011;40640;48.130;11.356;2022-07-29T03:44:56;6.40;;;1.42;;
54745;SDS011;40640;48.130;11.356;2022-07-29T03:49:01;8.40;;;1.75;;
54745;SDS011;40640;48.130;11.356;2022-07-29T03:53:06;4.68;;;2.22;;
54745;SDS011;40640;48.130;11.356;2022-07-29T03:57:11;1.65;;;1.30;;
54745;SDS011;40640;48.130;11.356;2022-07-29T04:01:15;1.98;;;1.20;;
54745;SDS011;40640;48.130;11.356;2022-07-29T04:05:19;1.10;;;0.77;;
54745;SDS011;40640;48.130;11.356;2022-07-29T04:09:22;0.73;;;0.73;;
54745;SDS011;40640;48.130;11.356;2022-07-29T04:13:26;0.60;;;0.60;;
54745;SDS011;40640;48.130;11.356;2022-07-29T04:17:29;1.27;;;0.77;;
54745;SDS011;40640;48.130;11.356;2022-07-29T04:21:36;1.00;;;0.90;;
54745;SDS011;40640;48.130;11.356;2022-07-29T04:25:39;1.15;;;0.95;;
54745;SDS011;40640;48.130;11.356;2022-07-29T04:29:44;0.80;;;0.80;;
54745;SDS011;40640;48.130;11.356;2022-07-29T04:33:57;3.58;;;0.85;;
54745;SDS011;40640;48.130;11.356;2022-07-29T04:38:00;1.02;;;0.90;;
54745;SDS011;40640;48.130;11.356;2022-07-29T04:42:04;2.28;;;0.90;;
54745;SDS011;40640;48.130;11.356;2022-07-29T04:46:10;1.95;;;1.00;;
54745;SDS011;40640;48.130;11.356;2022-07-29T04:50:13;1.75;;;0.95;;
54745;SDS011;40640;48.130;11.356;2022-07-29T04:54:15;1.25;;;0.90;;
54745;SDS011;40640;48.130;11.356;2022-07-29T04:58:19;1.27;;;1.02;;
54745;SDS011;40640;48.130;11.356;2022-07-29T05:02:25;1.45;;;0.80;;
54745;SDS011;40640;48.130;11.356;2022-07-29T05:06:28;3.65;;;0.73;;
54745;SDS011;40640;48.130;11.356;2022-07-29T05:10:31;1.48;;;1.05;;
54745;SDS011;40640;48.130;11.356;2022-07-29T05:14:35;0.90;;;0.80;;
54745;SDS011;40640;48.130;11.356;2022-07-29T05:18:39;7.82;;;1.10;;
54745;SDS011;40640;48.130;11.356;2022-07-29T05:22:42;1.60;;;0.80;;
54745;SDS011;40640;48.130;11.356;2022-07-29T05:26:44;0.88;;;0.88;;
54745;SDS011;40640;48.130;11.356;2022-07-29T05:30:47;1.27;;;0.77;;
54745;SDS011;40640;48.130;11.356;2022-07-29T05:34:52;2.25;;;0.95;;
54745;SDS011;40640;48.130;11.356;2022-07-29T05:38:55;5.05;;;0.60;;
54745;SDS011;40640;48.130;11.356;2022-07-29T05:42:58;1.33;;;0.90;;
54745;SDS011;40640;48.130;11.356;2022-07-29T05:47:01;0.55;;;0.55;;
54745;SDS011;40640;48.130;11.356;2022-07-29T05:51:05;0.60;;;0.60;;
54745;SDS011;40640;48.130;11.356;2022-07-29T05:55:08;6.00;;;0.80;;
54745;SDS011;40640;48.130;11.356;2022-07-29T05:59:12;2.95;;;0.70;;
54745;SDS011;40640;48.130;11.356;2022-07-29T06:03:18;2.72;;;0.90;;
54745;SDS011;40640;48.130;11.356;2022-07-29T06:07:22;0.47;;;0.47;;
54745;SDS011;40640;48.130;11.356;2022-07-29T06:11:25;2.05;;;0.93;;
54745;SDS011;40640;48.130;11.356;2022-07-29T06:15:28;0.70;;;0.70;;
54745;SDS011;40640;48.130;11.356;2022-07-29T06:19:31;1.48;;;0.90;;
54745;SDS011;40640;48.130;11.356;2022-07-29T06:23:38;1.23;;;0.88;;
54745;SDS011;40640;48.130;11.356;2022-07-29T06:27:41;1.95;;;1.05;;
54745;SDS011;40640;48.130;11.356;2022-07-29T06:31:44;0.90;;;0.90;;
54745;SDS011;40640;48.130;11.356;2022-07-29T06:35:47;0.70;;;0.70;;
54745;SDS011;40640;48.130;11.356;2022-07-29T06:39:56;0.85;;;0.80;;
54745;SDS011;40640;48.130;11.356;2022-07-29T06:44:13;1.00;;;0.73;;
54745;SDS011;40640;48.130;11.356;2022-07-29T06:48:17;4.78;;;0.80;;
54745;SDS011;40640;48.130;11.356;2022-07-29T06:52:19;1.40;;;0.80;;
54745;SDS011;40640;48.130;11.356;2022-07-29T06:56:24;1.55;;;0.80;;
54745;SDS011;40640;48.130;11.356;2022-07-29T07:00:27;1.05;;;0.73;;
54745;SDS011;40640;48.130;11.356;2022-07-29T07:04:30;0.82;;;0.70;;
54745;SDS011;40640;48.130;11.356;2022-07-29T07:08:33;0.70;;;0.70;;
54745;SDS011;40640;48.130;11.356;2022-07-29T07:12:37;0.65;;;0.65;;
54745;SDS011;40640;48.130;11.356;2022-07-29T07:16:40;1.08;;;0.98;;
54745;SDS011;40640;48.130;11.356;2022-07-29T07:20:43;0.70;;;0.50;;
54745;SDS011;40640;48.130;11.356;2022-07-29T07:24:46;3.25;;;0.90;;
54745;SDS011;40640;48.130;11.356;2022-07-29T07:28:50;0.65;;;0.65;;
54745;SDS011;40640;48.130;11.356;2022-07-29T07:32:53;0.50;;;0.50;;
54745;SDS011;40640;48.130;11.356;2022-07-29T07:36:57;2.42;;;0.90;;
54745;SDS011;40640;48.130;11.356;2022-07-29T07:41:00;0.73;;;0.73;;
54745;SDS011;40640;48.130;11.356;2022-07-29T07:45:05;2.53;;;0.93;;
54745;SDS011;40640;48.130;11.356;2022-07-29T07:49:17;0.50;;;0.50;;
54745;SDS011;40640;48.130;11.356;2022-07-29T07:53:20;1.05;;;0.93;;
54745;SDS011;40640;48.130;11.356;2022-07-29T07:57:23;0.77;;;0.77;;
54745;SDS011;40640;48.130;11.356;2022-07-29T08:01:27;0.88;;;0.63;;
54745;SDS011;40640;48.130;11.356;2022-07-29T08:05:48;0.88;;;0.70;;
54745;SDS011;40640;48.130;11.356;2022-07-29T08:09:52;1.00;;;0.80;;
54745;SDS011;40640;48.130;11.356;2022-07-29T08:13:55;1.10;;;0.85;;
54745;SDS011;40640;48.130;11.356;2022-07-29T08:17:59;1.65;;;1.00;;
54745;SDS011;40640;48.130;11.356;2022-07-29T08:22:08;0.90;;;0.70;;
54745;SDS011;40640;48.130;11.356;2022-07-29T08:26:11;1.95;;;1.00;;
54745;SDS011;40640;48.130;11.356;2022-07-29T08:30:15;0.70;;;0.70;;
54745;SDS011;40640;48.130;11.356;2022-07-29T08:34:19;1.25;;;1.15;;
54745;SDS011;40640;48.130;11.356;2022-07-29T08:38:28;0.82;;;0.82;;
54745;SDS011;40640;48.130;11.356;2022-07-29T08:42:31;0.73;;;0.70;;
54745;SDS011;40640;48.130;11.356;2022-07-29T08:46:33;1.08;;;0.98;;
54745;SDS011;40640;48.130;11.356;2022-07-29T08:50:42;0.75;;;0.75;;
54745;SDS011;40640;48.130;11.356;2022-07-29T08:54:47;1.55;;;0.95;;
54745;SDS011;40640;48.130;11.356;2022-07-29T08:58:51;1.20;;;0.90;;
54745;SDS011;40640;48.130;11.356;2022-07-29T09:02:55;1.30;;;1.08;;
54745;SDS011;40640;48.130;11.356;2022-07-29T09:07:02;1.10;;;1.00;;
54745;SDS011;40640;48.130;11.356;2022-07-29T09:11:07;5.22;;;1.33;;
54745;SDS011;40640;48.130;11.356;2022-07-29T09:15:09;1.38;;;1.00;;
54745;SDS011;40640;48.130;11.356;2022-07-29T09:19:19;1.17;;;0.98;;
54745;SDS011;40640;48.130;11.356;2022-07-29T09:23:27;1.80;;;1.48;;
54745;SDS011;40640;48.130;11.356;2022-07-29T09:27:30;1.95;;;1.38;;
54745;SDS011;40640;48.130;11.356;2022-07-29T09:31:35;2.67;;;1.30;;
54745;SDS011;40640;48.130;11.356;2022-07-29T09:35:40;2.22;;;1.02;;
54745;SDS011;40640;48.130;11.356;2022-07-29T09:39:58;1.15;;;0.90;;
54745;SDS011;40640;48.130;11.356;2022-07-29T09:44:01;1.83;;;1.45;;
54745;SDS011;40640;48.130;11.356;2022-07-29T09:48:12;1.40;;;1.08;;
54745;SDS011;40640;48.130;11.356;2022-07-29T09:52:16;1.45;;;1.10;;
54745;SDS011;40640;48.130;11.356;2022-07-29T09:56:20;1.13;;;1.02;;
54745;SDS011;40640;48.130;11.356;2022-07-29T10:00:41;2.85;;;1.15;;
54745;SDS011;40640;48.130;11.356;2022-07-29T10:04:44;1.17;;;1.08;;
54745;SDS011;40640;48.130;11.356;2022-07-29T10:08:47;1.23;;;1.00;;
54745;SDS011;40640;48.130;11.356;2022-07-29T10:12:54;2.55;;;1.48;;
54745;SDS011;40640;48.130;11.356;2022-07-29T10:17:01;1.40;;;1.27;;
54745;SDS011;40640;48.130;11.356;2022-07-29T10:21:05;1.45;;;1.30;;
54745;SDS011;40640;48.130;11.356;2022-07-29T10:25:09;1.75;;;1.45;;
54745;SDS011;40640;48.130;11.356;2022-07-29T10:29:14;2.75;;;1.50;;
54745;SDS011;40640;48.130;11.356;2022-07-29T10:33:27;2.33;;;1.50;;
54745;SDS011;40640;48.130;11.356;2022-07-29T10:37:59;2.63;;;1.50;;
54745;SDS011;40640;48.130;11.356;2022-07-29T10:42:17;2.60;;;1.83;;
54745;SDS011;40640;48.130;11.356;2022-07-29T10:46:37;1.40;;;1.30;;
54745;SDS011;40640;48.130;11.356;2022-07-29T10:50:54;5.65;;;1.75;;
54745;SDS011;40640;48.130;11.356;2022-07-29T10:54:58;1.50;;;1.40;;
54745;SDS011;40640;48.130;11.356;2022-07-29T11:03:46;2.80;;;1.13;;
54745;SDS011;40640;48.130;11.356;2022-07-29T11:17:00;1.33;;;1.17;;
54745;SDS011;40640;48.130;11.356;2022-07-29T11:21:09;1.75;;;1.33;;
54745;SDS011;40640;48.130;11.356;2022-07-29T11:26:14;1.83;;;1.60;;
54745;SDS011;40640;48.130;11.356;2022-07-29T11:30:36;1.77;;;1.35;;
54745;SDS011;40640;48.130;11.356;2022-07-29T11:35:09;1.63;;;1.33;;
54745;SDS011;40640;48.130;11.356;2022-07-29T11:39:26;5.47;;;2.28;;
54745;SDS011;40640;48.130;11.356;2022-07-29T11:43:45;3.38;;;1.77;;
54745;SDS011;40640;48.130;11.356;2022-07-29T11:47:52;3.60;;;1.42;;
54745;SDS011;40640;48.130;11.356;2022-07-29T11:52:19;1.90;;;1.20;;
54745;SDS011;40640;48.130;11.356;2022-07-29T11:56:25;1.17;;;1.10;;
54745;SDS011;40640;48.130;11.356;2022-07-29T12:00:35;2.08;;;1.50;;
54745;SDS011;40640;48.130;11.356;2022-07-29T12:04:47;2.67;;;1.35;;
54745;SDS011;40640;48.130;11.356;2022-07-29T12:08:52;3.55;;;1.70;;
54745;SDS011;40640;48.130;11.356;2022-07-29T12:12:56;1.52;;;1.20;;
54745;SDS011;40640;48.130;11.356;2022-07-29T12:16:59;1.45;;;1.15;;
54745;SDS011;40640;48.130;11.356;2022-07-29T12:21:02;2.40;;;1.50;;
54745;SDS011;40640;48.130;11.356;2022-07-29T12:25:06;1.23;;;1.13;;
54745;SDS011;40640;48.130;11.356;2022-07-29T12:29:31;1.35;;;1.13;;
54745;SDS011;40640;48.130;11.356;2022-07-29T12:33:36;1.77;;;1.33;;
54745;SDS011;40640;48.130;11.356;2022-07-29T12:37:39;10.90;;;1.80;;
54745;SDS011;40640;48.130;11.356;2022-07-29T12:41:44;2.55;;;1.77;;
54745;SDS011;40640;48.130;11.356;2022-07-29T12:45:49;1.40;;;1.30;;
54745;SDS011;40640;48.130;11.356;2022-07-29T12:50:07;1.88;;;1.45;;
54745;SDS011;40640;48.130;11.356;2022-07-29T12:54:11;2.83;;;1.35;;
54745;SDS011;40640;48.130;11.356;2022-07-29T12:58:25;1.48;;;1.38;;
54745;SDS011;40640;48.130;11.356;2022-07-29T13:02:31;1.48;;;1.23;;
54745;SDS011;40640;48.130;11.356;2022-07-29T13:06:35;10.55;;;1.73;;
54745;SDS011;40640;48.130;11.356;2022-07-29T13:10:41;2.53;;;1.50;;
54745;SDS011;40640;48.130;11.356;2022-07-29T13:14:45;4.82;;;1.65;;
54745;SDS011;40640;48.130;11.356;2022-07-29T13:19:02;2.95;;;1.52;;
54745;SDS011;40640;48.130;11.356;2022-07-29T13:23:06;2.47;;;1.10;;
54745;SDS011;40640;48.130;11.356;2022-07-29T13:27:09;1.98;;;1.10;;
54745;SDS011;40640;48.130;11.356;2022-07-29T13:31:12;1.05;;;0.95;;
54745;SDS011;40640;48.130;11.356;2022-07-29T13:35:16;3.10;;;1.45;;
54745;SDS011;40640;48.130;11.356;2022-07-29T13:39:20;8.18;;;1.65;;
54745;SDS011;40640;48.130;11.356;2022-07-29T13:43:22;3.40;;;1.33;;
54745;SDS011;40640;48.130;11.356;2022-07-29T13:47:25;1.30;;;1.20;;
54745;SDS011;40640;48.130;11.356;2022-07-29T13:51:34;2.08;;;1.15;;
54745;SDS011;40640;48.130;11.356;2022-07-29T13:55:37;4.15;;;1.13;;
54745;SDS011;40640;48.130;11.356;2022-07-29T13:59:40;1.05;;;0.90;;
54745;SDS011;40640;48.130;11.356;2022-07-29T14:03:44;4.07;;;1.20;;
54745;SDS011;40640;48.130;11.356;2022-07-29T14:07:48;3.20;;;1.33;;
54745;SDS011;40640;48.130;11.356;2022-07-29T14:11:51;1.40;;;1.20;;
54745;SDS011;40640;48.130;11.356;2022-07-29T14:15:54;6.53;;;1.23;;
54745;SDS011;40640;48.130;11.356;2022-07-29T14:19:57;2.67;;;1.27;;
54745;SDS011;40640;48.130;11.356;2022-07-29T14:24:01;1.25;;;1.15;;
54745;SDS011;40640;48.130;11.356;2022-07-29T14:28:17;1.50;;;1.02;;
54745;SDS011;40640;48.130;11.356;2022-07-29T14:32:20;1.20;;;1.10;;
54745;SDS011;40640;48.130;11.356;2022-07-29T14:36:23;6.68;;;1.45;;
54745;SDS011;40640;48.130;11.356;2022-07-29T14:40:27;2.13;;;1.45;;
54745;SDS011;40640;48.130;11.356;2022-07-29T14:44:30;5.00;;;1.10;;
54745;SDS011;40640;48.130;11.356;2022-07-29T14:48:33;1.30;;;1.20;;
54745;SDS011;40640;48.130;11.356;2022-07-29T14:52:36;3.17;;;1.58;;
54745;SDS011;40640;48.130;11.356;2022-07-29T14:56:40;3.10;;;1.30;;
54745;SDS011;40640;48.130;11.356;2022-07-29T15:00:47;1.10;;;1.10;;
54745;SDS011;40640;48.130;11.356;2022-07-29T15:04:50;6.68;;;1.70;;
54745;SDS011;40640;48.130;11.356;2022-07-29T15:08:53;1.70;;;1.60;;
54745;SDS011;40640;48.130;11.356;2022-07-29T15:12:57;1.30;;;1.20;;
54745;SDS011;40640;48.130;11.356;2022-07-29T15:17:00;4.00;;;1.75;;
54745;SDS011;40640;48.130;11.356;2022-07-29T15:21:04;3.15;;;1.45;;
54745;SDS011;40640;48.130;11.356;2022-07-29T15:25:08;1.60;;;1.35;;
54745;SDS011;40640;48.130;11.356;2022-07-29T15:29:13;5.85;;;1.63;;
54745;SDS011;40640;48.130;11.356;2022-07-29T15:33:16;1.95;;;1.45;;
54745;SDS011;40640;48.130;11.356;2022-07-29T15:37:19;2.70;;;1.70;;
54745;SDS011;40640;48.130;11.356;2022-07-29T15:41:22;1.75;;;1.45;;
54745;SDS011;40640;48.130;11.356;2022-07-29T15:45:26;2.05;;;1.60;;
54745;SDS011;40640;48.130;11.356;2022-07-29T15:49:33;2.50;;;1.48;;
54745;SDS011;40640;48.130;11.356;2022-07-29T15:53:49;7.97;;;3.58;;
54745;SDS011;40640;48.130;11.356;2022-07-29T15:57:54;5.18;;;1.70;;
54745;SDS011;40640;48.130;11.356;2022-07-29T16:02:02;2.92;;;1.55;;
54745;SDS011;40640;48.130;11.356;2022-07-29T16:06:05;2.00;;;1.85;;
54745;SDS011;40640;48.130;11.356;2022-07-29T16:10:08;2.70;;;2.15;;
54745;SDS011;40640;48.130;11.356;2022-07-29T16:14:11;1.70;;;1.40;;
54745;SDS011;40640;48.130;11.356;2022-07-29T16:18:15;5.95;;;2.30;;
54745;SDS011;40640;48.130;11.356;2022-07-29T16:22:18;4.18;;;1.98;;
54745;SDS011;40640;48.130;11.356;2022-07-29T16:26:21;2.75;;;1.73;;
54745;SDS011;40640;48.130;11.356;2022-07-29T16:30:23;1.80;;;1.63;;
54745;SDS011;40640;48.130;11.356;2022-07-29T16:34:29;2.28;;;1.80;;
54745;SDS011;40640;48.130;11.356;2022-07-29T16:38:31;3.75;;;1.77;;
54745;SDS011;40640;48.130;11.356;2022-07-29T16:42:35;5.50;;;2.47;;
54745;SDS011;40640;48.130;11.356;2022-07-29T16:46:47;2.90;;;2.60;;
54745;SDS011;40640;48.130;11.356;2022-07-29T16:50:51;4.03;;;2.50;;
54745;SDS011;40640;48.130;11.356;2022-07-29T16:54:54;3.95;;;2.40;;
54745;SDS011;40640;48.130;11.356;2022-07-29T16:58:58;3.05;;;2.25;;
54745;SDS011;40640;48.130;11.356;2022-07-29T17:03:01;2.10;;;1.80;;
54745;SDS011;40640;48.130;11.356;2022-07-29T17:07:05;2.38;;;1.58;;
54745;SDS011;40640;48.130;11.356;2022-07-29T17:11:07;1.92;;;1.55;;
54745;SDS011;40640;48.130;11.356;2022-07-29T17:15:11;2.38;;;1.40;;
54745;SDS011;40640;48.130;11.356;2022-07-29T17:19:16;1.83;;;1.45;;
54745;SDS011;40640;48.130;11.356;2022-07-29T17:23:23;2.33;;;1.25;;
54745;SDS011;40640;48.130;11.356;2022-07-29T17:27:25;3.42;;;1.88;;
54745;SDS011;40640;48.130;11.356;2022-07-29T17:31:28;1.27;;;1.05;;
54745;SDS011;40640;48.130;11.356;2022-07-29T17:35:31;0.68;;;0.65;;
54745;SDS011;40640;48.130;11.356;2022-07-29T17:39:52;2.90;;;1.00;;
54745;SDS011;40640;48.130;11.356;2022-07-29T17:44:00;5.10;;;0.93;;
54745;SDS011;40640;48.130;11.356;2022-07-29T17:48:03;2.70;;;0.90;;
54745;SDS011;40640;48.130;11.356;2022-07-29T17:52:07;4.38;;;0.80;;
54745;SDS011;40640;48.130;11.356;2022-07-29T17:56:11;1.25;;;1.13;;
54745;SDS011;40640;48.130;11.356;2022-07-29T18:00:14;0.65;;;0.65;;
54745;SDS011;40640;48.130;11.356;2022-07-29T18:04:17;1.83;;;0.68;;
54745;SDS011;40640;48.130;11.356;2022-07-29T18:08:23;0.65;;;0.65;;
54745;SDS011;40640;48.130;11.356;2022-07-29T18:12:27;0.75;;;0.63;;
54745;SDS011;40640;48.130;11.356;2022-07-29T18:16:30;3.35;;;1.00;;
54745;SDS011;40640;48.130;11.356;2022-07-29T18:20:33;1.17;;;0.63;;
54745;SDS011;40640;48.130;11.356;2022-07-29T18:24:36;2.15;;;0.95;;
54745;SDS011;40640;48.130;11.356;2022-07-29T18:28:40;4.03;;;0.98;;
54745;SDS011;40640;48.130;11.356;2022-07-29T18:32:43;6.72;;;1.00;;
54745;SDS011;40640;48.130;11.356;2022-07-29T18:37:05;0.90;;;0.60;;
54745;SDS011;40640;48.130;11.356;2022-07-29T18:41:08;2.88;;;0.82;;
54745;SDS011;40640;48.130;11.356;2022-07-29T18:45:13;1.33;;;0.82;;
54745;SDS011;40640;48.130;11.356;2022-07-29T18:49:20;0.82;;;0.82;;
54745;SDS011;40640;48.130;11.356;2022-07-29T18:53:23;2.55;;;0.70;;
54745;SDS011;40640;48.130;11.356;2022-07-29T18:57:26;3.42;;;2.78;;
54745;SDS011;40640;48.130;11.356;2022-07-29T19:01:50;1.48;;;1.00;;
54745;SDS011;40640;48.130;11.356;2022-07-29T19:05:53;2.25;;;1.17;;
54745;SDS011;40640;48.130;11.356;2022-07-29T19:09:56;2.65;;;0.90;;
54745;SDS011;40640;48.130;11.356;2022-07-29T19:13:59;1.08;;;0.98;;
54745;SDS011;40640;48.130;11.356;2022-07-29T19:18:03;2.92;;;1.65;;
54745;SDS011;40640;48.130;11.356;2022-07-29T19:22:07;2.05;;;1.60;;
54745;SDS011;40640;48.130;11.356;2022-07-29T19:26:10;6.43;;;1.52;;
54745;SDS011;40640;48.130;11.356;2022-07-29T19:30:21;1.67;;;1.58;;
54745;SDS011;40640;48.130;11.356;2022-07-29T19:34:25;2.00;;;1.40;;
54745;SDS011;40640;48.130;11.356;2022-07-29T19:38:28;3.33;;;1.48;;
54745;SDS011;40640;48.130;11.356;2022-07-29T19:42:30;2.47;;;1.67;;
54745;SDS011;40640;48.130;11.356;2022-07-29T19:46:33;2.08;;;1.90;;
54745;SDS011;40640;48.130;11.356;2022-07-29T19:50:37;2.33;;;1.85;;
54745;SDS011;40640;48.130;11.356;2022-07-29T19:54:43;3.70;;;1.70;;
54745;SDS011;40640;48.130;11.356;2022-07-29T19:58:46;2.50;;;1.65;;
54745;SDS011;40640;48.130;11.356;2022-07-29T20:02:49;3.40;;;1.75;;
54745;SDS011;40640;48.130;11.356;2022-07-29T20:06:53;1.50;;;1.40;;
54745;SDS011;40640;48.130;11.356;2022-07-29T20:11:01;3.30;;;2.10;;
54745;SDS011;40640;48.130;11.356;2022-07-29T20:15:05;3.95;;;2.17;;
54745;SDS011;40640;48.130;11.356;2022-07-29T20:19:16;1.83;;;1.73;;
54745;SDS011;40640;48.130;11.356;2022-07-29T20:23:20;2.40;;;1.77;;
54745;SDS011;40640;48.130;11.356;2022-07-29T20:27:23;2.67;;;2.38;;
54745;SDS011;40640;48.130;11.356;2022-07-29T20:31:26;1.63;;;1.52;;
54745;SDS011;40640;48.130;11.356;2022-07-29T20:35:30;3.65;;;2.45;;
54745;SDS011;40640;48.130;11.356;2022-07-29T20:39:35;2.55;;;2.13;;
54745;SDS011;40640;48.130;11.356;2022-07-29T20:43:37;3.97;;;2.40;;
54745;SDS011;40640;48.130;11.356;2022-07-29T20:47:41;2.60;;;2.30;;
54745;SDS011;40640;48.130;11.356;2022-07-29T20:51:44;2.22;;;2.03;;
54745;SDS011;40640;48.130;11.356;2022-07-29T20:55:48;3.80;;;2.63;;
54745;SDS011;40640;48.130;11.356;2022-07-29T20:59:51;5.93;;;2.47;;
54745;SDS011;40640;48.130;11.356;2022-07-29T21:03:54;3.38;;;2.38;;
54745;SDS011;40640;48.130;11.356;2022-07-29T21:07:57;4.43;;;2.42;;
54745;SDS011;40640;48.130;11.356;2022-07-29T21:12:02;3.58;;;2.60;;
54745;SDS011;40640;48.130;11.356;2022-07-29T21:16:05;4.55;;;2.40;;
54745;SDS011;40640;48.130;11.356;2022-07-29T21:24:19;3.80;;;2.22;;
54745;SDS011;40640;48.130;11.356;2022-07-29T21:28:23;3.60;;;2.63;;
54745;SDS011;40640;48.130;11.356;2022-07-29T21:32:29;4.72;;;2.90;;
54745;SDS011;40640;48.130;11.356;2022-07-29T21:36:32;3.10;;;2.38;;
54745;SDS011;40640;48.130;11.356;2022-07-29T21:40:50;3.72;;;2.70;;
54745;SDS011;40640;48.130;11.356;2022-07-29T21:44:55;3.60;;;2.47;;
54745;SDS011;40640;48.130;11.356;2022-07-29T21:48:58;2.97;;;2.50;;
54745;SDS011;40640;48.130;11.356;2022-07-29T21:53:01;9.23;;;2.40;;
54745;SDS011;40640;48.130;11.356;2022-07-29T21:57:04;5.82;;;2.70;;
54745;SDS011;40640;48.130;11.356;2022-07-29T22:01:09;3.13;;;2.17;;
54745;SDS011;40640;48.130;11.356;2022-07-29T22:05:12;6.38;;;2.58;;
54745;SDS011;40640;48.130;11.356;2022-07-29T22:09:15;2.30;;;2.10;;
54745;SDS011;40640;48.130;11.356;2022-07-29T22:13:18;5.15;;;2.40;;
54745;SDS011;40640;48.130;11.356;2022-07-29T22:17:23;6.10;;;3.35;;
54745;SDS011;40640;48.130;11.356;2022-07-29T22:21:25;7.90;;;3.22;;
54745;SDS011;40640;48.130;11.356;2022-07-29T22:25:28;4.85;;;2.65;;
54745;SDS011;40640;48.130;11.356;2022-07-29T22:29:31;3.65;;;2.83;;
54745;SDS011;40640;48.130;11.356;2022-07-29T22:33:36;3.88;;;2.55;;
54745;SDS011;40640;48.130;11.356;2022-07-29T22:37:39;4.35;;;2.78;;
54745;SDS011;40640;48.130;11.356;2022-07-29T22:41:42;5.97;;;3.22;;
54745;SDS011;40640;48.130;11.356;2022-07-29T22:45:44;5.18;;;3.47;;
54745;SDS011;40640;48.130;11.356;2022-07-29T22:49:49;5.05;;;2.83;;
54745;SDS011;40640;48.130;11.356;2022-07-29T22:53:51;3.55;;;2.67;;
54745;SDS011;40640;48.130;11.356;2022-07-29T22:57:54;3.65;;;2.53;;
54745;SDS011;40640;48.130;11.356;2022-07-29T23:01:57;4.63;;;2.95;;
54745;SDS011;40640;48.130;11.356;2022-07-29T23:06:02;5.25;;;2.97;;
54745;SDS011;40640;48.130;11.356;2022-07-29T23:10:05;3.60;;;2.60;;
54745;SDS011;40640;48.130;11.356;2022-07-29T23:14:08;3.88;;;2.95;;
54745;SDS011;40640;48.130;11.356;2022-07-29T23:18:11;3.70;;;2.78;;
54745;SDS011;40640;48.130;11.356;2022-07-29T23:22:15;4.82;;;2.50;;
54745;SDS011;40640;48.130;11.356;2022-07-29T23:26:18;2.70;;;2.28;;
54745;SDS011;40640;48.130;11.356;2022-07-29T23:30:21;2.28;;;2.08;;
54745;SDS011;40640;48.130;11.356;2022-07-29T23:34:24;2.22;;;2.00;;
54745;SDS011;40640;48.130;11.356;2022-07-29T23:38:28;2.95;;;2.03;;
54745;SDS011;40640;48.130;11.356;2022-07-29T23:42:31;7.38;;;2.03;;
54745;SDS011;40640;48.130;11.356;2022-07-29T23:46:34;2.60;;;2.00;;
54745;SDS011;40640;48.130;11.356;2022-07-29T23:50:37;3.20;;;1.77;;
54745;SDS011;40640;48.130;11.356;2022-07-29T23:54:41;2.72;;;2.08;;
54745;SDS011;40640;48.130;11.356;2022-07-29T23:58:44;2.50;;;2.13;;
